createdAt,value
2019-02-26T00:01:08.411Z,48.92
2019-02-26T00:02:21.359Z,48.98
2019-02-26T00:03:28.572Z,49.10
2019-02-26T00:04:37.213Z,49.18
2019-02-26T00:05:47.860Z,49.14
2019-02-26T00:06:55.860Z,49.13
2019-02-26T00:08:05.159Z,49.15
2019-02-26T00:09:18.023Z,49.16
2019-02-26T00:10:26.571Z,49.17
2019-02-26T00:11:35.819Z,49.18
2019-02-26T00:12:43.908Z,49.23
2019-02-26T00:13:52.809Z,49.26
2019-02-26T00:15:02.562Z,49.32
2019-02-26T00:16:12.892Z,49.36
2019-02-26T00:17:21.826Z,49.38
2019-02-26T00:18:29.893Z,49.40
2019-02-26T00:19:37.930Z,49.51
2019-02-26T00:20:46.059Z,49.50
2019-02-26T00:21:55.487Z,49.47
2019-02-26T00:23:04.388Z,49.50
2019-02-26T00:24:14.499Z,49.64
2019-02-26T00:25:22.201Z,49.75
2019-02-26T00:26:30.380Z,49.89
2019-02-26T00:27:38.294Z,50.00
2019-02-26T00:28:46.448Z,50.13
2019-02-26T00:29:55.191Z,50.24
2019-02-26T00:31:04.249Z,50.32
2019-02-26T00:32:13.924Z,50.33
2019-02-26T00:33:25.199Z,50.37
2019-02-26T00:34:34.547Z,50.41
2019-02-26T00:35:43.936Z,50.43
2019-02-26T00:36:52.252Z,50.48
2019-02-26T00:38:00.638Z,50.52
2019-02-26T00:39:09.157Z,50.52
2019-02-26T00:40:20.110Z,50.53
2019-02-26T00:41:29.145Z,50.58
2019-02-26T00:42:37.424Z,50.57
2019-02-26T00:43:45.664Z,50.57
2019-02-26T00:44:55.478Z,50.68
2019-02-26T00:46:05.467Z,50.78
2019-02-26T00:47:13.316Z,50.79
2019-02-26T00:48:21.320Z,50.75
2019-02-26T00:49:30.261Z,50.66
2019-02-26T00:50:39.810Z,50.69
2019-02-26T00:51:49.069Z,50.73
2019-02-26T00:52:59.439Z,50.72
2019-02-26T00:54:07.981Z,50.73
2019-02-26T00:55:15.971Z,50.69
2019-02-26T00:56:25.231Z,50.77
2019-02-26T00:57:36.484Z,50.78
2019-02-26T00:58:46.179Z,50.83
2019-02-26T00:59:53.993Z,50.84
2019-02-26T01:01:02.264Z,50.88
2019-02-26T01:02:10.354Z,50.99
2019-02-26T01:03:18.529Z,51.00
2019-02-26T01:04:26.756Z,51.08
2019-02-26T01:05:36.337Z,51.15
2019-02-26T01:06:44.882Z,51.18
2019-02-26T01:07:54.394Z,51.18
2019-02-26T01:09:04.138Z,51.16
2019-02-26T01:10:13.965Z,51.14
2019-02-26T01:11:23.892Z,51.20
2019-02-26T01:12:35.245Z,51.31
2019-02-26T01:13:42.703Z,51.43
2019-02-26T01:14:50.788Z,51.43
2019-02-26T01:15:59.162Z,51.44
2019-02-26T01:17:08.212Z,51.52
2019-02-26T01:18:18.098Z,51.51
2019-02-26T01:19:27.024Z,51.45
2019-02-26T01:20:35.292Z,51.46
2019-02-26T01:21:43.592Z,51.50
2019-02-26T01:22:51.762Z,51.45
2019-02-26T01:24:01.769Z,51.53
2019-02-26T01:25:12.694Z,51.56
2019-02-26T01:26:21.096Z,51.62
2019-02-26T01:27:29.281Z,51.71
2019-02-26T01:28:39.567Z,51.80
2019-02-26T01:29:49.347Z,51.77
2019-02-26T01:30:58.014Z,51.73
2019-02-26T01:32:08.843Z,51.76
2019-02-26T01:33:16.616Z,51.81
2019-02-26T01:34:24.876Z,51.95
2019-02-26T01:35:33.214Z,52.05
2019-02-26T01:36:44.500Z,52.12
2019-02-26T01:37:54.039Z,52.18
2019-02-26T01:39:02.554Z,52.20
2019-02-26T01:40:15.838Z,52.26
2019-02-26T01:41:24.963Z,52.28
2019-02-26T01:42:32.887Z,52.34
2019-02-26T01:43:41.016Z,52.29
2019-02-26T01:44:49.288Z,52.23
2019-02-26T01:45:57.337Z,52.25
2019-02-26T01:47:05.764Z,52.35
2019-02-26T01:48:16.701Z,52.36
2019-02-26T01:49:25.872Z,52.39
2019-02-26T01:50:35.518Z,52.45
2019-02-26T01:51:45.723Z,52.50
2019-02-26T01:52:54.576Z,52.56
2019-02-26T01:54:02.939Z,52.57
2019-02-26T01:55:13.616Z,52.56
2019-02-26T01:56:22.106Z,52.54
2019-02-26T01:57:30.233Z,52.54
2019-02-26T01:58:38.508Z,52.53
2019-02-26T01:59:49.908Z,52.50
2019-02-26T02:00:56.351Z,52.56
2019-02-26T02:02:04.395Z,52.53
2019-02-26T02:03:12.645Z,52.62
2019-02-26T02:04:21.047Z,52.65
2019-02-26T02:05:31.274Z,52.65
2019-02-26T02:06:39.187Z,52.63
2019-02-26T02:07:49.551Z,52.61
2019-02-26T02:08:58.469Z,52.72
2019-02-26T02:10:13.151Z,52.70
2019-02-26T02:11:23.868Z,52.68
2019-02-26T02:12:32.412Z,52.84
2019-02-26T02:13:41.435Z,52.89
2019-02-26T02:14:50.606Z,52.82
2019-02-26T02:15:59.722Z,52.90
2019-02-26T02:17:10.758Z,53.02
2019-02-26T02:18:20.535Z,53.05
2019-02-26T02:19:30.210Z,53.05
2019-02-26T02:20:37.867Z,53.16
2019-02-26T02:21:47.654Z,53.14
2019-02-26T02:22:56.413Z,53.15
2019-02-26T02:24:10.784Z,53.16
2019-02-26T02:25:16.563Z,53.28
2019-02-26T02:26:24.934Z,53.37
2019-02-26T02:27:33.344Z,53.42
2019-02-26T02:28:41.784Z,53.46
2019-02-26T02:29:50.687Z,53.54
2019-02-26T02:30:59.518Z,53.67
2019-02-26T02:32:07.834Z,53.72
2019-02-26T02:33:19.559Z,53.79
2019-02-26T02:34:27.012Z,53.80
2019-02-26T02:35:36.293Z,53.88
2019-02-26T02:36:44.492Z,53.95
2019-02-26T02:37:53.724Z,53.88
2019-02-26T02:39:02.684Z,53.86
2019-02-26T02:40:13.828Z,53.98
2019-02-26T02:41:21.935Z,54.07
2019-02-26T02:42:30.369Z,54.13
2019-02-26T02:43:38.638Z,54.14
2019-02-26T02:44:47.283Z,54.12
2019-02-26T02:45:59.069Z,54.20
2019-02-26T02:47:08.804Z,54.17
2019-02-26T02:48:16.023Z,54.14
2019-02-26T02:49:24.246Z,54.20
2019-02-26T02:50:32.816Z,54.33
2019-02-26T02:51:40.987Z,54.42
2019-02-26T02:52:50.882Z,54.46
2019-02-26T02:53:59.379Z,54.52
2019-02-26T02:55:10.561Z,54.52
2019-02-26T02:56:19.345Z,54.52
2019-02-26T02:57:29.422Z,54.53
2019-02-26T02:58:38.593Z,54.59
2019-02-26T02:59:47.231Z,54.63
2019-02-26T03:00:57.091Z,54.67
2019-02-26T03:02:05.288Z,54.68
2019-02-26T03:03:13.490Z,54.75
2019-02-26T03:04:22.232Z,54.87
2019-02-26T03:05:34.101Z,54.88
2019-02-26T03:06:41.030Z,54.94
2019-02-26T03:07:51.639Z,55.03
2019-02-26T03:08:59.020Z,55.11
2019-02-26T03:10:12.901Z,55.19
2019-02-26T03:11:20.981Z,55.29
2019-02-26T03:12:29.530Z,55.37
2019-02-26T03:13:37.622Z,55.46
2019-02-26T03:14:46.309Z,55.54
2019-02-26T03:15:56.683Z,55.59
2019-02-26T03:17:06.413Z,55.66
2019-02-26T03:18:16.779Z,55.64
2019-02-26T03:19:24.235Z,55.62
2019-02-26T03:20:37.276Z,55.62
2019-02-26T03:21:44.723Z,55.68
2019-02-26T03:22:52.540Z,55.77
2019-02-26T03:24:03.342Z,55.76
2019-02-26T03:25:17.320Z,55.76
2019-02-26T03:26:25.907Z,55.84
2019-02-26T03:27:36.299Z,55.79
2019-02-26T03:28:44.654Z,55.76
2019-02-26T03:29:56.237Z,55.71
2019-02-26T03:31:04.185Z,55.65
2019-02-26T03:32:12.587Z,55.65
2019-02-26T03:33:20.613Z,55.70
2019-02-26T03:34:29.417Z,55.72
2019-02-26T03:35:37.597Z,55.77
2019-02-26T03:36:45.957Z,55.79
2019-02-26T03:37:57.736Z,55.82
2019-02-26T03:39:04.613Z,55.80
2019-02-26T03:40:16.733Z,55.80
2019-02-26T03:41:26.167Z,55.82
2019-02-26T03:42:36.508Z,55.80
2019-02-26T03:43:44.540Z,55.83
2019-02-26T03:44:52.535Z,55.76
2019-02-26T03:46:00.652Z,55.75
2019-02-26T03:47:08.732Z,55.81
2019-02-26T03:48:20.336Z,55.81
2019-02-26T03:49:27.228Z,55.82
2019-02-26T03:50:35.555Z,55.85
2019-02-26T03:51:43.756Z,55.83
2019-02-26T03:52:51.816Z,55.81
2019-02-26T03:53:59.924Z,55.79
2019-02-26T03:55:11.478Z,55.83
2019-02-26T03:56:20.580Z,55.75
2019-02-26T03:57:29.073Z,55.74
2019-02-26T03:58:37.754Z,55.75
2019-02-26T03:59:46.260Z,55.77
2019-02-26T04:00:54.686Z,55.80
2019-02-26T04:02:03.107Z,55.80
2019-02-26T04:03:12.478Z,55.69
2019-02-26T04:04:23.105Z,55.68
2019-02-26T04:05:31.938Z,55.66
2019-02-26T04:06:41.234Z,55.61
2019-02-26T04:07:52.468Z,55.60
2019-02-26T04:08:59.621Z,55.63
2019-02-26T04:10:10.627Z,55.60
2019-02-26T04:11:19.963Z,55.58
2019-02-26T04:12:28.682Z,55.64
2019-02-26T04:13:36.984Z,55.63
2019-02-26T04:14:45.106Z,55.66
2019-02-26T04:15:56.278Z,55.63
2019-02-26T04:17:04.159Z,55.62
2019-02-26T04:18:13.219Z,55.54
2019-02-26T04:19:26.107Z,55.57
2019-02-26T04:20:31.127Z,55.54
2019-02-26T04:22:26.743Z,55.51
2019-02-26T04:23:36.117Z,55.52
2019-02-26T04:24:44.878Z,55.50
2019-02-26T04:26:02.756Z,55.55
2019-02-26T04:27:45.072Z,55.54
2019-02-26T04:29:18.459Z,55.38
2019-02-26T04:30:55.303Z,55.37
2019-02-26T04:32:20.969Z,55.37
2019-02-26T04:33:53.739Z,55.41
2019-02-26T04:35:02.705Z,55.48
2019-02-26T04:36:30.866Z,55.48
2019-02-26T04:38:09.848Z,55.47
2019-02-26T04:39:42.357Z,55.44
2019-02-26T04:41:02.527Z,55.42
2019-02-26T04:42:25.919Z,55.39
2019-02-26T04:43:58.532Z,55.42
2019-02-26T04:45:27.051Z,55.46
2019-02-26T04:46:42.843Z,55.45
2019-02-26T04:48:03.614Z,55.36
2019-02-26T04:49:11.804Z,55.26
2019-02-26T04:50:23.034Z,55.22
2019-02-26T04:51:30.183Z,55.12
2019-02-26T04:52:42.841Z,55.11
2019-02-26T04:53:51.071Z,55.08
2019-02-26T04:54:58.752Z,55.12
2019-02-26T04:56:12.120Z,55.10
2019-02-26T04:57:17.350Z,55.08
2019-02-26T04:58:26.083Z,55.06
2019-02-26T04:59:34.885Z,55.13
2019-02-26T05:00:44.454Z,55.10
2019-02-26T05:01:54.961Z,55.07
2019-02-26T05:03:04.920Z,55.15
2019-02-26T05:04:12.863Z,55.22
2019-02-26T05:05:22.465Z,55.18
2019-02-26T05:06:31.281Z,55.25
2019-02-26T05:07:42.255Z,55.22
2019-02-26T05:08:49.646Z,55.20
2019-02-26T05:09:59.438Z,55.12
2019-02-26T05:11:07.665Z,55.14
2019-02-26T05:12:16.066Z,55.19
2019-02-26T05:13:26.999Z,55.19
2019-02-26T05:14:34.741Z,55.18
2019-02-26T05:15:43.627Z,55.22
2019-02-26T05:16:52.154Z,55.30
2019-02-26T05:18:00.555Z,55.29
2019-02-26T05:19:10.395Z,55.26
2019-02-26T05:20:19.060Z,55.28
2019-02-26T05:21:29.824Z,55.36
2019-02-26T05:22:37.141Z,55.36
2019-02-26T05:23:46.471Z,55.41
2019-02-26T05:24:55.185Z,55.44
2019-02-26T05:26:05.589Z,55.39
2019-02-26T05:27:19.649Z,55.38
2019-02-26T05:28:29.889Z,55.30
2019-02-26T05:29:40.422Z,55.23
2019-02-26T05:30:49.519Z,55.20
2019-02-26T05:31:58.855Z,55.17
2019-02-26T05:33:07.181Z,55.10
2019-02-26T05:34:18.116Z,55.05
2019-02-26T05:35:25.462Z,55.00
2019-02-26T05:36:34.466Z,54.99
2019-02-26T05:37:43.177Z,55.01
2019-02-26T05:38:52.450Z,55.06
2019-02-26T05:40:01.229Z,55.10
2019-02-26T05:41:09.587Z,55.13
2019-02-26T05:42:17.721Z,55.18
2019-02-26T05:43:28.141Z,55.22
2019-02-26T05:44:35.650Z,55.21
2019-02-26T05:45:43.654Z,55.22
2019-02-26T05:46:54.035Z,55.26
2019-02-26T05:48:01.521Z,55.29
2019-02-26T05:49:13.265Z,55.35
2019-02-26T05:50:19.616Z,55.37
2019-02-26T05:51:29.871Z,55.35
2019-02-26T05:52:38.087Z,55.31
2019-02-26T05:53:46.689Z,55.30
2019-02-26T05:54:55.285Z,55.34
2019-02-26T05:56:03.378Z,55.31
2019-02-26T05:57:25.911Z,55.41
2019-02-26T05:58:21.623Z,55.50
2019-02-26T05:59:29.971Z,55.55
2019-02-26T06:00:38.630Z,55.50
2019-02-26T06:01:49.329Z,55.50
2019-02-26T06:02:56.643Z,55.43
2019-02-26T06:04:06.763Z,55.39
2019-02-26T06:05:17.169Z,55.36
2019-02-26T06:06:24.651Z,55.37
2019-02-26T06:07:35.959Z,55.42
2019-02-26T06:08:43.120Z,55.38
2019-02-26T06:09:53.617Z,55.30
2019-02-26T06:11:01.471Z,55.29
2019-02-26T06:12:09.532Z,55.28
2019-02-26T06:13:17.849Z,55.26
2019-02-26T06:14:27.643Z,55.24
2019-02-26T06:15:35.692Z,55.18
2019-02-26T06:16:45.644Z,55.26
2019-02-26T06:17:55.838Z,55.30
2019-02-26T06:19:03.288Z,55.33
2019-02-26T06:20:23.672Z,55.35
2019-02-26T06:21:31.682Z,55.33
2019-02-26T06:22:40.130Z,55.32
2019-02-26T06:23:56.195Z,55.31
2019-02-26T06:25:09.606Z,55.31
2019-02-26T06:26:17.710Z,55.36
2019-02-26T06:27:27.279Z,55.44
2019-02-26T06:28:38.070Z,55.50
2019-02-26T06:29:45.157Z,55.47
2019-02-26T06:30:55.002Z,55.53
2019-02-26T06:32:11.900Z,55.66
2019-02-26T06:33:20.245Z,55.68
2019-02-26T06:34:28.468Z,55.61
2019-02-26T06:35:38.492Z,55.58
2019-02-26T06:36:48.771Z,55.51
2019-02-26T06:37:57.096Z,55.48
2019-02-26T06:39:06.107Z,55.55
2019-02-26T06:40:16.920Z,55.56
2019-02-26T06:41:25.031Z,55.51
2019-02-26T06:42:35.461Z,55.60
2019-02-26T06:43:47.581Z,55.58
2019-02-26T06:44:53.491Z,55.57
2019-02-26T06:46:02.687Z,55.63
2019-02-26T06:47:13.465Z,55.63
2019-02-26T06:48:24.623Z,55.58
2019-02-26T06:49:32.062Z,55.52
2019-02-26T06:50:41.604Z,55.45
2019-02-26T06:51:52.110Z,55.33
2019-02-26T06:53:04.396Z,55.30
2019-02-26T06:54:11.007Z,55.33
2019-02-26T06:55:19.203Z,55.32
2019-02-26T06:56:27.347Z,55.30
2019-02-26T06:57:35.777Z,55.30
2019-02-26T06:58:45.039Z,55.25
2019-02-26T06:59:55.707Z,55.26
2019-02-26T07:01:03.425Z,55.28
2019-02-26T07:02:11.745Z,55.22
2019-02-26T07:03:24.241Z,55.25
2019-02-26T07:04:30.255Z,55.24
2019-02-26T07:05:39.104Z,55.23
2019-02-26T07:06:47.817Z,55.32
2019-02-26T07:07:57.072Z,55.39
2019-02-26T07:09:06.546Z,55.43
2019-02-26T07:10:19.017Z,55.46
2019-02-26T07:11:28.057Z,55.42
2019-02-26T07:12:38.258Z,55.42
2019-02-26T07:13:46.544Z,55.44
2019-02-26T07:14:55.487Z,55.53
2019-02-26T07:16:05.240Z,55.65
2019-02-26T07:17:13.592Z,55.74
2019-02-26T07:18:21.730Z,55.76
2019-02-26T07:19:32.718Z,55.79
2019-02-26T07:20:46.474Z,55.84
2019-02-26T07:21:52.965Z,55.90
2019-02-26T07:23:00.732Z,55.98
2019-02-26T07:24:08.943Z,56.04
2019-02-26T07:25:18.633Z,56.11
2019-02-26T07:26:27.074Z,56.15
2019-02-26T07:27:36.075Z,56.23
2019-02-26T07:28:46.925Z,56.20
2019-02-26T07:29:55.161Z,56.30
2019-02-26T07:31:05.478Z,56.38
2019-02-26T07:32:14.780Z,56.44
2019-02-26T07:33:23.725Z,56.42
2019-02-26T07:34:32.049Z,56.37
2019-02-26T07:35:40.565Z,56.31
2019-02-26T07:36:50.663Z,56.34
2019-02-26T07:38:00.807Z,56.52
2019-02-26T07:39:10.403Z,56.59
2019-02-26T07:40:18.851Z,56.61
2019-02-26T07:41:28.381Z,56.68
2019-02-26T07:42:39.076Z,56.78
2019-02-26T07:43:49.197Z,56.94
2019-02-26T07:44:56.708Z,57.08
2019-02-26T07:46:05.048Z,57.16
2019-02-26T07:47:13.272Z,57.13
2019-02-26T07:48:23.799Z,57.08
2019-02-26T07:49:31.543Z,57.11
2019-02-26T07:50:42.840Z,57.18
2019-02-26T07:51:50.041Z,57.30
2019-02-26T07:52:59.442Z,57.41
2019-02-26T07:54:07.591Z,57.51
2019-02-26T07:55:17.469Z,57.59
2019-02-26T07:56:29.622Z,57.64
2019-02-26T07:57:37.391Z,57.63
2019-02-26T07:58:45.526Z,57.70
2019-02-26T07:59:54.071Z,57.69
2019-02-26T08:01:02.411Z,57.63
2019-02-26T08:02:11.747Z,57.60
2019-02-26T08:03:22.438Z,57.61
2019-02-26T08:04:32.329Z,57.60
2019-02-26T08:05:41.069Z,57.52
2019-02-26T08:06:49.416Z,57.41
2019-02-26T08:07:57.985Z,57.33
2019-02-26T08:09:11.486Z,57.19
2019-02-26T08:10:19.533Z,57.09
2019-02-26T08:11:27.949Z,57.02
2019-02-26T08:12:38.153Z,56.91
2019-02-26T08:13:46.565Z,56.95
2019-02-26T08:14:55.496Z,56.96
2019-02-26T08:16:05.124Z,56.90
2019-02-26T08:17:13.458Z,56.78
2019-02-26T08:18:21.738Z,56.72
2019-02-26T08:19:29.983Z,56.67
2019-02-26T08:20:40.181Z,56.56
2019-02-26T08:21:50.225Z,56.46
2019-02-26T08:22:58.702Z,56.27
2019-02-26T08:24:07.653Z,56.21
2019-02-26T08:25:16.334Z,56.19
2019-02-26T08:26:26.677Z,56.07
2019-02-26T08:27:35.640Z,55.88
2019-02-26T08:28:45.902Z,55.83
2019-02-26T08:29:56.985Z,55.66
2019-02-26T08:31:05.483Z,55.63
2019-02-26T08:32:16.304Z,55.40
2019-02-26T08:33:23.694Z,55.21
2019-02-26T08:34:32.252Z,55.21
2019-02-26T08:35:40.619Z,55.25
2019-02-26T08:36:48.854Z,55.27
2019-02-26T08:37:56.950Z,55.20
2019-02-26T08:39:07.608Z,54.96
2019-02-26T08:40:17.368Z,54.95
2019-02-26T08:41:25.583Z,54.87
2019-02-26T08:42:33.819Z,54.17
2019-02-26T08:43:46.312Z,53.90
2019-02-26T08:44:54.239Z,53.63
2019-02-26T08:46:02.279Z,53.54
2019-02-26T08:47:12.008Z,53.57
2019-02-26T08:48:22.169Z,53.57
2019-02-26T08:49:30.126Z,53.54
2019-02-26T08:50:42.259Z,53.45
2019-02-26T08:51:49.367Z,53.13
2019-02-26T08:52:58.500Z,53.07
2019-02-26T08:54:06.740Z,53.05
2019-02-26T08:55:19.139Z,52.91
2019-02-26T08:56:28.185Z,52.79
2019-02-26T08:57:36.278Z,52.63
2019-02-26T08:58:45.387Z,52.49
2019-02-26T08:59:54.779Z,52.30
2019-02-26T09:01:02.876Z,52.31
2019-02-26T09:02:11.041Z,52.32
2019-02-26T09:03:20.410Z,52.32
2019-02-26T09:04:28.700Z,52.26
2019-02-26T09:05:36.897Z,52.23
2019-02-26T09:06:45.082Z,52.07
2019-02-26T09:07:53.306Z,51.97
2019-02-26T09:09:04.565Z,51.91
2019-02-26T09:10:17.831Z,51.77
2019-02-26T09:11:28.806Z,51.73
2019-02-26T09:12:38.608Z,51.53
2019-02-26T09:13:46.949Z,51.39
2019-02-26T09:14:55.512Z,51.17
2019-02-26T09:16:05.550Z,50.95
2019-02-26T09:17:13.454Z,50.86
2019-02-26T09:18:24.620Z,50.87
2019-02-26T09:19:33.108Z,50.74
2019-02-26T09:20:41.319Z,50.66
2019-02-26T09:21:50.670Z,50.71
2019-02-26T09:23:01.390Z,50.82
2019-02-26T09:24:09.402Z,50.88
2019-02-26T09:25:17.898Z,50.82
2019-02-26T09:26:26.062Z,50.70
2019-02-26T09:27:39.368Z,50.63
2019-02-26T09:28:45.626Z,50.46
2019-02-26T09:29:53.688Z,50.35
2019-02-26T09:31:04.223Z,50.23
2019-02-26T09:32:12.166Z,50.08
2019-02-26T09:33:21.263Z,50.12
2019-02-26T09:34:31.804Z,50.19
2019-02-26T09:35:39.459Z,50.17
2019-02-26T09:36:50.621Z,50.15
2019-02-26T09:38:00.693Z,49.96
2019-02-26T09:39:08.720Z,49.89
2019-02-26T09:40:23.499Z,49.98
2019-02-26T09:41:30.127Z,50.03
2019-02-26T09:42:38.402Z,50.00
2019-02-26T09:43:48.121Z,49.99
2019-02-26T09:44:57.792Z,50.00
2019-02-26T09:46:09.103Z,49.89
2019-02-26T09:47:18.440Z,49.76
2019-02-26T09:48:26.582Z,49.51
2019-02-26T09:49:35.833Z,49.36
2019-02-26T09:50:46.286Z,49.01
2019-02-26T09:51:55.081Z,48.74
2019-02-26T09:53:03.432Z,48.62
2019-02-26T09:54:13.197Z,48.35
2019-02-26T09:55:21.597Z,48.40
2019-02-26T09:56:29.902Z,48.28
2019-02-26T09:57:38.098Z,48.29
2019-02-26T09:58:48.232Z,48.28
2019-02-26T09:59:58.207Z,48.25
2019-02-26T10:01:08.570Z,48.16
2019-02-26T10:02:17.356Z,48.22
2019-02-26T10:03:27.367Z,48.24
2019-02-26T10:04:36.380Z,48.21
2019-02-26T10:05:45.931Z,48.26
2019-02-26T10:06:54.169Z,48.10
2019-02-26T10:08:05.210Z,48.08
2019-02-26T10:09:14.046Z,47.89
2019-02-26T10:10:29.098Z,47.97
2019-02-26T10:11:39.187Z,48.03
2019-02-26T10:12:47.288Z,47.95
2019-02-26T10:13:55.537Z,47.91
2019-02-26T10:15:05.304Z,47.74
2019-02-26T10:16:13.356Z,47.29
2019-02-26T10:17:21.679Z,46.56
2019-02-26T10:18:30.922Z,46.63
2019-02-26T10:19:41.052Z,46.67
2019-02-26T10:20:52.152Z,46.60
2019-02-26T10:22:02.856Z,46.59
2019-02-26T10:23:10.336Z,46.49
2019-02-26T10:24:23.015Z,46.47
2019-02-26T10:25:31.904Z,46.39
2019-02-26T10:26:40.967Z,46.28
2019-02-26T10:27:49.309Z,45.99
2019-02-26T10:29:03.875Z,45.97
2019-02-26T10:30:14.216Z,45.95
2019-02-26T10:31:25.060Z,45.66
2019-02-26T10:32:33.464Z,45.51
2019-02-26T10:33:43.969Z,45.54
2019-02-26T10:34:51.474Z,45.63
2019-02-26T10:35:59.477Z,45.62
2019-02-26T10:37:08.900Z,45.69
2019-02-26T10:38:17.054Z,45.71
2019-02-26T10:39:27.724Z,45.65
2019-02-26T10:40:47.278Z,45.73
2019-02-26T10:41:46.708Z,45.63
2019-02-26T10:42:54.929Z,45.59
2019-02-26T10:44:03.522Z,45.55
2019-02-26T10:45:15.385Z,45.22
2019-02-26T10:46:24.439Z,45.17
2019-02-26T10:47:34.657Z,45.46
2019-02-26T10:48:43.867Z,45.67
2019-02-26T10:49:53.786Z,45.75
2019-02-26T10:51:06.025Z,45.76
2019-02-26T10:52:16.480Z,45.69
2019-02-26T10:53:22.828Z,45.78
2019-02-26T10:54:35.470Z,45.83
2019-02-26T10:55:41.776Z,45.39
2019-02-26T10:56:50.828Z,45.04
2019-02-26T10:58:06.357Z,44.88
2019-02-26T10:59:12.555Z,44.54
2019-02-26T11:00:34.468Z,44.47
2019-02-26T11:01:41.507Z,44.19
2019-02-26T11:02:50.997Z,44.43
2019-02-26T11:04:00.367Z,44.71
2019-02-26T11:05:11.265Z,44.99
2019-02-26T11:06:20.395Z,45.24
2019-02-26T11:07:29.396Z,45.44
2019-02-26T11:08:38.674Z,45.50
2019-02-26T11:09:49.994Z,45.39
2019-02-26T11:10:57.103Z,45.17
2019-02-26T11:12:07.901Z,45.08
2019-02-26T11:13:17.590Z,44.99
2019-02-26T11:14:24.844Z,44.86
2019-02-26T11:15:35.810Z,44.54
2019-02-26T11:16:42.928Z,44.50
2019-02-26T11:17:53.597Z,44.07
2019-02-26T11:19:02.390Z,43.91
2019-02-26T11:20:21.851Z,43.72
2019-02-26T11:21:30.009Z,43.50
2019-02-26T11:22:41.687Z,43.07
2019-02-26T11:23:48.286Z,42.92
2019-02-26T11:24:58.474Z,42.83
2019-02-26T11:26:07.433Z,42.57
2019-02-26T11:27:17.334Z,42.31
2019-02-26T11:28:29.733Z,42.04
2019-02-26T11:29:36.404Z,41.98
2019-02-26T11:30:46.569Z,42.10
2019-02-26T11:31:55.182Z,42.27
2019-02-26T11:33:06.098Z,42.54
2019-02-26T11:34:13.510Z,42.93
2019-02-26T11:35:22.545Z,43.16
2019-02-26T11:36:33.505Z,43.30
2019-02-26T11:37:42.400Z,43.35
2019-02-26T11:38:51.047Z,43.17
2019-02-26T11:40:00.480Z,42.96
2019-02-26T11:41:10.731Z,42.92
2019-02-26T11:42:21.191Z,42.52
2019-02-26T11:43:29.611Z,42.43
2019-02-26T11:44:38.024Z,42.32
2019-02-26T11:45:47.294Z,42.16
2019-02-26T11:46:56.476Z,41.97
2019-02-26T11:48:08.132Z,41.81
2019-02-26T11:49:16.792Z,41.55
2019-02-26T11:50:28.695Z,41.40
2019-02-26T11:51:39.807Z,41.17
2019-02-26T11:52:51.645Z,41.12
2019-02-26T11:53:57.182Z,41.12
2019-02-26T11:55:09.419Z,41.03
2019-02-26T11:56:20.747Z,40.93
2019-02-26T11:57:30.232Z,40.91
2019-02-26T11:58:38.983Z,40.85
2019-02-26T11:59:47.755Z,41.09
2019-02-26T12:00:58.257Z,41.14
2019-02-26T12:02:07.216Z,41.20
2019-02-26T12:03:16.030Z,41.23
2019-02-26T12:04:25.021Z,41.26
2019-02-26T12:05:38.270Z,41.10
2019-02-26T12:06:44.684Z,41.10
2019-02-26T12:07:53.752Z,40.95
2019-02-26T12:09:05.496Z,41.00
2019-02-26T12:10:15.265Z,40.98
2019-02-26T12:11:23.850Z,40.95
2019-02-26T12:12:34.186Z,41.05
2019-02-26T12:13:42.857Z,41.11
2019-02-26T12:14:52.310Z,41.08
2019-02-26T12:16:00.928Z,40.98
2019-02-26T12:17:09.339Z,40.89
2019-02-26T12:18:19.825Z,40.84
2019-02-26T12:19:28.316Z,40.77
2019-02-26T12:20:38.496Z,40.71
2019-02-26T12:21:49.453Z,40.54
2019-02-26T12:22:57.034Z,40.54
2019-02-26T12:24:06.680Z,40.52
2019-02-26T12:25:17.009Z,40.44
2019-02-26T12:26:25.582Z,40.45
2019-02-26T12:27:36.172Z,40.46
2019-02-26T12:28:45.460Z,40.05
2019-02-26T12:29:54.578Z,39.77
2019-02-26T12:31:04.178Z,39.67
2019-02-26T12:32:13.219Z,39.54
2019-02-26T12:33:21.636Z,39.43
2019-02-26T12:34:30.084Z,39.36
2019-02-26T12:35:40.455Z,39.34
2019-02-26T12:36:51.133Z,39.44
2019-02-26T12:38:13.827Z,39.46
2019-02-26T12:39:09.275Z,39.44
2019-02-26T12:40:23.434Z,39.16
2019-02-26T12:41:33.248Z,38.73
2019-02-26T12:42:40.875Z,38.57
2019-02-26T12:43:49.045Z,38.47
2019-02-26T12:45:00.333Z,38.36
2019-02-26T12:46:08.456Z,38.39
2019-02-26T12:47:18.756Z,38.10
2019-02-26T12:48:27.187Z,38.02
2019-02-26T12:49:38.432Z,37.78
2019-02-26T12:50:45.603Z,37.79
2019-02-26T12:51:56.679Z,37.56
2019-02-26T12:53:04.458Z,37.11
2019-02-26T12:54:15.576Z,37.00
2019-02-26T12:55:28.914Z,36.95
2019-02-26T12:56:36.766Z,36.98
2019-02-26T12:57:46.492Z,36.66
2019-02-26T12:58:54.598Z,36.67
2019-02-26T13:00:03.282Z,36.67
2019-02-26T13:01:11.989Z,36.57
2019-02-26T13:02:21.844Z,36.46
2019-02-26T13:03:30.299Z,36.47
2019-02-26T13:04:40.864Z,36.47
2019-02-26T13:05:49.184Z,36.35
2019-02-26T13:06:58.173Z,36.56
2019-02-26T13:08:09.786Z,36.60
2019-02-26T13:09:16.164Z,36.69
2019-02-26T13:10:26.930Z,36.66
2019-02-26T13:11:35.013Z,36.75
2019-02-26T13:12:48.079Z,36.44
2019-02-26T13:13:53.984Z,36.39
2019-02-26T13:15:05.644Z,36.28
2019-02-26T13:16:12.977Z,36.29
2019-02-26T13:17:26.306Z,36.26
2019-02-26T13:18:34.901Z,36.15
2019-02-26T13:19:44.216Z,36.10
2019-02-26T13:20:59.512Z,36.03
2019-02-26T13:22:06.720Z,35.90
2019-02-26T13:23:19.594Z,35.86
2019-02-26T13:24:27.704Z,35.77
2019-02-26T13:25:38.616Z,35.85
2019-02-26T13:26:50.746Z,35.98
2019-02-26T13:27:57.896Z,35.99
2019-02-26T13:29:06.462Z,35.90
2019-02-26T13:30:24.184Z,35.83
2019-02-26T13:31:35.671Z,35.48
2019-02-26T13:32:55.205Z,35.47
2019-02-26T13:33:53.563Z,35.28
2019-02-26T13:35:07.423Z,35.12
2019-02-26T13:36:12.620Z,35.00
2019-02-26T13:37:21.189Z,34.87
2019-02-26T13:38:40.722Z,34.79
2019-02-26T13:39:41.427Z,34.75
2019-02-26T13:40:51.215Z,34.83
2019-02-26T13:42:09.089Z,34.86
2019-02-26T13:43:10.784Z,34.85
2019-02-26T13:44:18.880Z,34.82
2019-02-26T13:45:29.658Z,34.88
2019-02-26T13:46:38.016Z,34.88
2019-02-26T13:47:46.430Z,34.96
2019-02-26T13:48:55.136Z,34.87
2019-02-26T13:50:03.756Z,34.68
2019-02-26T13:51:14.030Z,34.45
2019-02-26T13:52:22.731Z,34.37
2019-02-26T13:53:31.445Z,34.42
2019-02-26T13:54:40.328Z,34.47
2019-02-26T13:55:49.154Z,34.54
2019-02-26T13:56:57.512Z,34.44
2019-02-26T13:58:11.685Z,34.11
2019-02-26T13:59:15.597Z,34.08
2019-02-26T14:00:26.778Z,34.11
2019-02-26T14:01:33.634Z,34.18
2019-02-26T14:02:42.142Z,34.29
2019-02-26T14:03:50.384Z,34.23
2019-02-26T14:04:58.838Z,34.19
2019-02-26T14:06:07.169Z,34.20
2019-02-26T14:07:15.439Z,34.19
2019-02-26T14:08:23.812Z,34.13
2019-02-26T14:09:31.938Z,33.99
2019-02-26T14:10:40.495Z,34.05
2019-02-26T14:11:48.499Z,34.02
2019-02-26T14:12:56.947Z,33.91
2019-02-26T14:14:05.665Z,33.86
2019-02-26T14:15:26.669Z,33.78
2019-02-26T14:16:35.556Z,33.68
2019-02-26T14:17:43.719Z,33.64
2019-02-26T14:18:51.965Z,33.57
2019-02-26T14:20:00.384Z,33.57
2019-02-26T14:21:08.482Z,33.50
2019-02-26T14:22:17.012Z,33.48
2019-02-26T14:23:25.082Z,33.33
2019-02-26T14:24:33.087Z,33.27
2019-02-26T14:25:41.948Z,33.26
2019-02-26T14:26:50.305Z,33.23
2019-02-26T14:27:58.711Z,33.24
2019-02-26T14:29:07.106Z,33.26
2019-02-26T14:30:23.388Z,33.27
2019-02-26T14:31:31.489Z,33.25
2019-02-26T14:32:39.547Z,33.27
2019-02-26T14:33:47.891Z,33.29
2019-02-26T14:34:56.402Z,33.36
2019-02-26T14:36:05.205Z,33.20
2019-02-26T14:37:13.322Z,33.11
2019-02-26T14:38:22.093Z,32.91
2019-02-26T14:39:30.738Z,32.81
2019-02-26T14:40:38.742Z,32.63
2019-02-26T14:41:47.240Z,32.55
2019-02-26T14:42:55.936Z,32.54
2019-02-26T14:44:04.150Z,32.56
2019-02-26T14:45:26.593Z,32.62
2019-02-26T14:46:34.598Z,32.58
2019-02-26T14:47:42.579Z,32.50
2019-02-26T14:48:51.063Z,32.47
2019-02-26T14:49:59.269Z,32.48
2019-02-26T14:51:07.725Z,32.37
2019-02-26T14:52:15.761Z,32.26
2019-02-26T14:53:24.066Z,32.17
2019-02-26T14:54:32.100Z,32.16
2019-02-26T14:55:40.628Z,31.91
2019-02-26T14:56:48.722Z,32.02
2019-02-26T14:57:57.681Z,31.99
2019-02-26T14:59:06.092Z,32.10